sensor_id;sensor_type;location;lat;lon;timestamp;P1;durP1;ratioP1;P2;durP2;ratioP2
29816;SDS011;16805;52.956;5.906;2023-07-31T00:01:18;1.73;;;0.80;;
29816;SDS011;16805;52.956;5.906;2023-07-31T00:03:45;1.52;;;0.65;;
29816;SDS011;16805;52.956;5.906;2023-07-31T00:06:11;1.95;;;0.70;;
29816;SDS011;16805;52.956;5.906;2023-07-31T00:08:36;2.10;;;0.80;;
29816;SDS011;16805;52.956;5.906;2023-07-31T00:11:02;0.90;;;0.60;;
29816;SDS011;16805;52.956;5.906;2023-07-31T00:13:28;1.10;;;0.60;;
29816;SDS011;16805;52.956;5.906;2023-07-31T00:15:53;0.30;;;0.30;;
29816;SDS011;16805;52.956;5.906;2023-07-31T00:18:19;0.90;;;0.52;;
29816;SDS011;16805;52.956;5.906;2023-07-31T00:20:45;1.35;;;0.47;;
29816;SDS011;16805;52.956;5.906;2023-07-31T00:23:10;0.80;;;0.40;;
29816;SDS011;16805;52.956;5.906;2023-07-31T00:25:36;0.32;;;0.22;;
29816;SDS011;16805;52.956;5.906;2023-07-31T00:28:02;0.60;;;0.30;;
29816;SDS011;16805;52.956;5.906;2023-07-31T00:30:28;0.70;;;0.20;;
29816;SDS011;16805;52.956;5.906;2023-07-31T00:32:53;0.47;;;0.20;;
29816;SDS011;16805;52.956;5.906;2023-07-31T00:35:19;0.45;;;0.10;;
29816;SDS011;16805;52.956;5.906;2023-07-31T00:37:45;0.85;;;0.25;;
29816;SDS011;16805;52.956;5.906;2023-07-31T00:40:10;0.73;;;0.28;;
29816;SDS011;16805;52.956;5.906;2023-07-31T00:42:36;0.30;;;0.20;;
29816;SDS011;16805;52.956;5.906;2023-07-31T00:45:02;1.13;;;0.45;;
29816;SDS011;16805;52.956;5.906;2023-07-31T00:47:27;1.10;;;0.10;;
29816;SDS011;16805;52.956;5.906;2023-07-31T00:49:53;1.48;;;0.30;;
29816;SDS011;16805;52.956;5.906;2023-07-31T00:52:19;3.70;;;0.38;;
29816;SDS011;16805;52.956;5.906;2023-07-31T00:54:46;0.90;;;0.35;;
29816;SDS011;16805;52.956;5.906;2023-07-31T00:57:11;0.70;;;0.30;;
29816;SDS011;16805;52.956;5.906;2023-07-31T00:59:37;0.60;;;0.20;;
29816;SDS011;16805;52.956;5.906;2023-07-31T01:02:03;0.80;;;0.32;;
29816;SDS011;16805;52.956;5.906;2023-07-31T01:04:29;0.45;;;0.35;;
29816;SDS011;16805;52.956;5.906;2023-07-31T01:12:04;0.85;;;0.30;;
29816;SDS011;16805;52.956;5.906;2023-07-31T01:14:32;0.38;;;0.20;;
29816;SDS011;16805;52.956;5.906;2023-07-31T01:16:58;0.70;;;0.30;;
29816;SDS011;16805;52.956;5.906;2023-07-31T01:19:25;0.68;;;0.28;;
29816;SDS011;16805;52.956;5.906;2023-07-31T01:24:59;0.45;;;0.17;;
29816;SDS011;16805;52.956;5.906;2023-07-31T01:27:53;1.20;;;0.20;;
29816;SDS011;16805;52.956;5.906;2023-07-31T01:30:25;1.65;;;0.22;;
29816;SDS011;16805;52.956;5.906;2023-07-31T01:32:58;1.83;;;0.43;;
29816;SDS011;16805;52.956;5.906;2023-07-31T01:35:27;0.40;;;0.20;;
29816;SDS011;16805;52.956;5.906;2023-07-31T01:37:53;0.45;;;0.43;;
29816;SDS011;16805;52.956;5.906;2023-07-31T01:40:19;0.60;;;0.40;;
29816;SDS011;16805;52.956;5.906;2023-07-31T01:42:45;0.30;;;0.30;;
29816;SDS011;16805;52.956;5.906;2023-07-31T01:45:10;0.35;;;0.25;;
29816;SDS011;16805;52.956;5.906;2023-07-31T01:47:37;4.68;;;0.40;;
29816;SDS011;16805;52.956;5.906;2023-07-31T01:50:02;0.68;;;0.30;;
29816;SDS011;16805;52.956;5.906;2023-07-31T01:52:28;0.60;;;0.30;;
29816;SDS011;16805;52.956;5.906;2023-07-31T01:54:55;0.52;;;0.30;;
29816;SDS011;16805;52.956;5.906;2023-07-31T01:57:21;1.83;;;0.60;;
29816;SDS011;16805;52.956;5.906;2023-07-31T01:59:46;0.30;;;0.30;;
29816;SDS011;16805;52.956;5.906;2023-07-31T02:02:12;2.15;;;0.60;;
29816;SDS011;16805;52.956;5.906;2023-07-31T02:04:38;1.48;;;0.60;;
29816;SDS011;16805;52.956;5.906;2023-07-31T02:07:05;0.43;;;0.35;;
29816;SDS011;16805;52.956;5.906;2023-07-31T02:09:31;1.13;;;1.02;;
29816;SDS011;16805;52.956;5.906;2023-07-31T02:11:57;0.50;;;0.32;;
29816;SDS011;16805;52.956;5.906;2023-07-31T02:14:23;2.17;;;0.40;;
29816;SDS011;16805;52.956;5.906;2023-07-31T02:16:49;0.43;;;0.30;;
29816;SDS011;16805;52.956;5.906;2023-07-31T02:19:15;0.80;;;0.40;;
29816;SDS011;16805;52.956;5.906;2023-07-31T02:21:40;0.82;;;0.40;;
29816;SDS011;16805;52.956;5.906;2023-07-31T02:24:06;6.90;;;0.50;;
29816;SDS011;16805;52.956;5.906;2023-07-31T02:26:32;0.93;;;0.30;;
29816;SDS011;16805;52.956;5.906;2023-07-31T02:28:58;2.10;;;0.45;;
29816;SDS011;16805;52.956;5.906;2023-07-31T02:31:23;0.68;;;0.40;;
29816;SDS011;16805;52.956;5.906;2023-07-31T02:33:49;0.68;;;0.30;;
29816;SDS011;16805;52.956;5.906;2023-07-31T02:36:15;1.02;;;0.28;;
29816;SDS011;16805;52.956;5.906;2023-07-31T02:38:40;0.82;;;0.30;;
29816;SDS011;16805;52.956;5.906;2023-07-31T02:41:06;0.30;;;0.30;;
29816;SDS011;16805;52.956;5.906;2023-07-31T02:43:32;1.23;;;0.35;;
29816;SDS011;16805;52.956;5.906;2023-07-31T02:45:59;1.83;;;0.47;;
29816;SDS011;16805;52.956;5.906;2023-07-31T02:48:24;1.20;;;0.40;;
29816;SDS011;16805;52.956;5.906;2023-07-31T02:50:50;0.43;;;0.30;;
29816;SDS011;16805;52.956;5.906;2023-07-31T02:53:17;0.98;;;0.47;;
29816;SDS011;16805;52.956;5.906;2023-07-31T02:55:44;1.63;;;0.43;;
29816;SDS011;16805;52.956;5.906;2023-07-31T02:58:09;0.73;;;0.30;;
29816;SDS011;16805;52.956;5.906;2023-07-31T03:00:35;0.47;;;0.28;;
29816;SDS011;16805;52.956;5.906;2023-07-31T03:03:01;1.75;;;0.30;;
29816;SDS011;16805;52.956;5.906;2023-07-31T03:05:26;1.20;;;0.20;;
29816;SDS011;16805;52.956;5.906;2023-07-31T03:07:52;0.20;;;0.20;;
29816;SDS011;16805;52.956;5.906;2023-07-31T03:10:18;0.22;;;0.22;;
29816;SDS011;16805;52.956;5.906;2023-07-31T03:12:46;0.40;;;0.30;;
29816;SDS011;16805;52.956;5.906;2023-07-31T03:15:13;0.50;;;0.20;;
29816;SDS011;16805;52.956;5.906;2023-07-31T03:17:39;1.00;;;0.47;;
29816;SDS011;16805;52.956;5.906;2023-07-31T03:20:05;0.30;;;0.30;;
29816;SDS011;16805;52.956;5.906;2023-07-31T03:22:31;1.33;;;0.20;;
29816;SDS011;16805;52.956;5.906;2023-07-31T03:24:57;0.22;;;0.20;;
29816;SDS011;16805;52.956;5.906;2023-07-31T03:27:22;0.50;;;0.20;;
29816;SDS011;16805;52.956;5.906;2023-07-31T03:29:48;1.75;;;0.17;;
29816;SDS011;16805;52.956;5.906;2023-07-31T03:32:16;0.10;;;0.10;;
29816;SDS011;16805;52.956;5.906;2023-07-31T03:34:41;0.43;;;0.30;;
29816;SDS011;16805;52.956;5.906;2023-07-31T03:37:07;0.30;;;0.20;;
29816;SDS011;16805;52.956;5.906;2023-07-31T03:39:34;0.60;;;0.30;;
29816;SDS011;16805;52.956;5.906;2023-07-31T03:42:00;0.35;;;0.28;;
29816;SDS011;16805;52.956;5.906;2023-07-31T03:44:26;0.60;;;0.22;;
29816;SDS011;16805;52.956;5.906;2023-07-31T03:46:51;0.75;;;0.40;;
29816;SDS011;16805;52.956;5.906;2023-07-31T03:49:17;0.63;;;0.30;;
29816;SDS011;16805;52.956;5.906;2023-07-31T03:51:43;1.33;;;0.50;;
29816;SDS011;16805;52.956;5.906;2023-07-31T03:54:10;1.25;;;0.50;;
29816;SDS011;16805;52.956;5.906;2023-07-31T03:56:36;2.25;;;0.50;;
29816;SDS011;16805;52.956;5.906;2023-07-31T03:59:03;1.13;;;0.70;;
29816;SDS011;16805;52.956;5.906;2023-07-31T04:01:29;1.15;;;0.70;;
29816;SDS011;16805;52.956;5.906;2023-07-31T04:03:58;1.38;;;0.70;;
29816;SDS011;16805;52.956;5.906;2023-07-31T04:06:23;2.10;;;0.70;;
29816;SDS011;16805;52.956;5.906;2023-07-31T04:08:49;2.28;;;1.00;;
29816;SDS011;16805;52.956;5.906;2023-07-31T04:11:15;1.63;;;0.75;;
29816;SDS011;16805;52.956;5.906;2023-07-31T04:13:40;2.58;;;0.85;;
29816;SDS011;16805;52.956;5.906;2023-07-31T04:16:06;2.85;;;0.77;;
29816;SDS011;16805;52.956;5.906;2023-07-31T04:18:33;2.45;;;1.13;;
29816;SDS011;16805;52.956;5.906;2023-07-31T04:20:59;5.00;;;1.10;;
29816;SDS011;16805;52.956;5.906;2023-07-31T04:23:26;1.33;;;0.80;;
29816;SDS011;16805;52.956;5.906;2023-07-31T04:25:52;2.15;;;1.25;;
29816;SDS011;16805;52.956;5.906;2023-07-31T04:28:18;1.83;;;1.13;;
29816;SDS011;16805;52.956;5.906;2023-07-31T04:30:45;1.73;;;1.17;;
29816;SDS011;16805;52.956;5.906;2023-07-31T04:33:11;3.35;;;1.05;;
29816;SDS011;16805;52.956;5.906;2023-07-31T04:35:36;2.95;;;1.30;;
29816;SDS011;16805;52.956;5.906;2023-07-31T04:38:02;3.67;;;1.50;;
29816;SDS011;16805;52.956;5.906;2023-07-31T04:40:28;5.22;;;1.63;;
29816;SDS011;16805;52.956;5.906;2023-07-31T04:42:53;2.75;;;1.50;;
29816;SDS011;16805;52.956;5.906;2023-07-31T04:45:19;6.40;;;1.90;;
29816;SDS011;16805;52.956;5.906;2023-07-31T04:47:45;4.22;;;1.95;;
29816;SDS011;16805;52.956;5.906;2023-07-31T04:50:11;2.50;;;1.52;;
29816;SDS011;16805;52.956;5.906;2023-07-31T04:52:36;5.03;;;1.80;;
29816;SDS011;16805;52.956;5.906;2023-07-31T04:55:02;5.88;;;2.38;;
29816;SDS011;16805;52.956;5.906;2023-07-31T04:57:28;9.90;;;2.80;;
29816;SDS011;16805;52.956;5.906;2023-07-31T04:59:55;12.27;;;2.88;;
29816;SDS011;16805;52.956;5.906;2023-07-31T05:02:21;9.98;;;3.25;;
29816;SDS011;16805;52.956;5.906;2023-07-31T05:04:47;6.75;;;2.70;;
29816;SDS011;16805;52.956;5.906;2023-07-31T05:07:12;6.32;;;2.13;;
29816;SDS011;16805;52.956;5.906;2023-07-31T05:09:38;9.60;;;3.05;;
29816;SDS011;16805;52.956;5.906;2023-07-31T05:12:04;11.10;;;3.10;;
29816;SDS011;16805;52.956;5.906;2023-07-31T05:14:30;5.70;;;2.47;;
29816;SDS011;16805;52.956;5.906;2023-07-31T05:16:56;7.40;;;2.58;;
29816;SDS011;16805;52.956;5.906;2023-07-31T05:19:23;12.32;;;2.83;;
29816;SDS011;16805;52.956;5.906;2023-07-31T05:21:50;7.05;;;2.30;;
29816;SDS011;16805;52.956;5.906;2023-07-31T05:24:15;10.88;;;3.00;;
29816;SDS011;16805;52.956;5.906;2023-07-31T05:26:44;9.18;;;3.08;;
29816;SDS011;16805;52.956;5.906;2023-07-31T05:29:09;9.80;;;3.88;;
29816;SDS011;16805;52.956;5.906;2023-07-31T05:31:35;6.85;;;2.28;;
29816;SDS011;16805;52.956;5.906;2023-07-31T05:34:01;10.48;;;2.55;;
29816;SDS011;16805;52.956;5.906;2023-07-31T05:36:27;5.60;;;2.10;;
29816;SDS011;16805;52.956;5.906;2023-07-31T05:38:53;4.82;;;2.45;;
29816;SDS011;16805;52.956;5.906;2023-07-31T05:41:18;8.48;;;2.70;;
29816;SDS011;16805;52.956;5.906;2023-07-31T05:43:44;9.40;;;2.30;;
29816;SDS011;16805;52.956;5.906;2023-07-31T05:46:10;6.25;;;2.17;;
29816;SDS011;16805;52.956;5.906;2023-07-31T05:48:37;9.23;;;3.72;;
29816;SDS011;16805;52.956;5.906;2023-07-31T05:51:03;15.02;;;3.65;;
29816;SDS011;16805;52.956;5.906;2023-07-31T05:53:29;7.22;;;2.40;;
29816;SDS011;16805;52.956;5.906;2023-07-31T05:55:56;6.00;;;1.95;;
29816;SDS011;16805;52.956;5.906;2023-07-31T05:58:23;7.80;;;2.50;;
29816;SDS011;16805;52.956;5.906;2023-07-31T06:00:48;9.20;;;3.20;;
29816;SDS011;16805;52.956;5.906;2023-07-31T06:03:14;6.32;;;2.60;;
29816;SDS011;16805;52.956;5.906;2023-07-31T06:05:40;5.70;;;2.00;;
29816;SDS011;16805;52.956;5.906;2023-07-31T06:08:06;7.88;;;2.58;;
29816;SDS011;16805;52.956;5.906;2023-07-31T06:10:32;5.47;;;2.05;;
29816;SDS011;16805;52.956;5.906;2023-07-31T06:12:58;6.60;;;1.98;;
29816;SDS011;16805;52.956;5.906;2023-07-31T06:15:23;3.97;;;1.88;;
29816;SDS011;16805;52.956;5.906;2023-07-31T06:17:49;7.18;;;2.67;;
29816;SDS011;16805;52.956;5.906;2023-07-31T06:20:15;7.78;;;2.00;;
29816;SDS011;16805;52.956;5.906;2023-07-31T06:22:41;5.93;;;2.10;;
29816;SDS011;16805;52.956;5.906;2023-07-31T06:25:06;8.65;;;2.17;;
29816;SDS011;16805;52.956;5.906;2023-07-31T06:27:32;13.68;;;2.90;;
29816;SDS011;16805;52.956;5.906;2023-07-31T06:29:58;8.02;;;2.63;;
29816;SDS011;16805;52.956;5.906;2023-07-31T06:32:24;6.55;;;2.67;;
29816;SDS011;16805;52.956;5.906;2023-07-31T06:34:50;4.38;;;1.85;;
29816;SDS011;16805;52.956;5.906;2023-07-31T06:37:16;4.10;;;1.85;;
29816;SDS011;16805;52.956;5.906;2023-07-31T06:39:41;2.78;;;1.17;;
29816;SDS011;16805;52.956;5.906;2023-07-31T06:42:07;3.45;;;0.88;;
29816;SDS011;16805;52.956;5.906;2023-07-31T06:44:33;3.05;;;1.00;;
29816;SDS011;16805;52.956;5.906;2023-07-31T06:46:59;1.45;;;0.70;;
29816;SDS011;16805;52.956;5.906;2023-07-31T06:49:25;1.27;;;0.52;;
29816;SDS011;16805;52.956;5.906;2023-07-31T06:51:51;1.10;;;0.60;;
29816;SDS011;16805;52.956;5.906;2023-07-31T06:54:18;2.50;;;0.65;;
29816;SDS011;16805;52.956;5.906;2023-07-31T06:56:44;1.33;;;0.70;;
29816;SDS011;16805;52.956;5.906;2023-07-31T06:59:10;3.05;;;0.90;;
29816;SDS011;16805;52.956;5.906;2023-07-31T07:01:35;1.10;;;0.60;;
29816;SDS011;16805;52.956;5.906;2023-07-31T07:04:03;1.63;;;0.55;;
29816;SDS011;16805;52.956;5.906;2023-07-31T07:06:29;0.50;;;0.30;;
29816;SDS011;16805;52.956;5.906;2023-07-31T07:08:55;1.58;;;0.60;;
29816;SDS011;16805;52.956;5.906;2023-07-31T07:11:21;0.57;;;0.40;;
29816;SDS011;16805;52.956;5.906;2023-07-31T07:13:47;0.85;;;0.35;;
29816;SDS011;16805;52.956;5.906;2023-07-31T07:16:15;1.00;;;0.82;;
29816;SDS011;16805;52.956;5.906;2023-07-31T07:18:41;0.30;;;0.30;;
29816;SDS011;16805;52.956;5.906;2023-07-31T07:21:07;0.65;;;0.28;;
29816;SDS011;16805;52.956;5.906;2023-07-31T07:23:33;0.50;;;0.38;;
29816;SDS011;16805;52.956;5.906;2023-07-31T07:25:59;0.47;;;0.40;;
29816;SDS011;16805;52.956;5.906;2023-07-31T07:28:25;1.23;;;0.38;;
29816;SDS011;16805;52.956;5.906;2023-07-31T07:30:51;0.40;;;0.40;;
29816;SDS011;16805;52.956;5.906;2023-07-31T07:33:18;0.35;;;0.25;;
29816;SDS011;16805;52.956;5.906;2023-07-31T07:35:44;1.15;;;0.28;;
29816;SDS011;16805;52.956;5.906;2023-07-31T07:38:10;0.43;;;0.30;;
29816;SDS011;16805;52.956;5.906;2023-07-31T07:40:39;1.02;;;0.22;;
29816;SDS011;16805;52.956;5.906;2023-07-31T07:43:05;0.82;;;0.30;;
29816;SDS011;16805;52.956;5.906;2023-07-31T07:45:31;0.82;;;0.60;;
29816;SDS011;16805;52.956;5.906;2023-07-31T07:47:56;0.13;;;0.13;;
29816;SDS011;16805;52.956;5.906;2023-07-31T07:50:24;0.25;;;0.20;;
29816;SDS011;16805;52.956;5.906;2023-07-31T07:52:49;0.57;;;0.15;;
29816;SDS011;16805;52.956;5.906;2023-07-31T07:55:15;0.47;;;0.30;;
29816;SDS011;16805;52.956;5.906;2023-07-31T07:57:41;0.73;;;0.15;;
29816;SDS011;16805;52.956;5.906;2023-07-31T08:00:08;1.15;;;0.43;;
29816;SDS011;16805;52.956;5.906;2023-07-31T08:02:35;0.85;;;0.30;;
29816;SDS011;16805;52.956;5.906;2023-07-31T08:05:01;0.63;;;0.20;;
29816;SDS011;16805;52.956;5.906;2023-07-31T08:07:26;0.28;;;0.20;;
29816;SDS011;16805;52.956;5.906;2023-07-31T08:09:52;0.20;;;0.20;;
29816;SDS011;16805;52.956;5.906;2023-07-31T08:12:18;0.80;;;0.25;;
29816;SDS011;16805;52.956;5.906;2023-07-31T08:14:44;0.10;;;0.10;;
29816;SDS011;16805;52.956;5.906;2023-07-31T08:17:09;0.20;;;0.20;;
29816;SDS011;16805;52.956;5.906;2023-07-31T08:19:35;0.10;;;0.10;;
29816;SDS011;16805;52.956;5.906;2023-07-31T08:22:01;0.70;;;0.13;;
29816;SDS011;16805;52.956;5.906;2023-07-31T08:24:26;0.20;;;0.10;;
29816;SDS011;16805;52.956;5.906;2023-07-31T08:26:52;0.10;;;0.10;;
29816;SDS011;16805;52.956;5.906;2023-07-31T08:29:18;0.05;;;0.05;;
29816;SDS011;16805;52.956;5.906;2023-07-31T08:31:43;0.57;;;0.30;;
29816;SDS011;16805;52.956;5.906;2023-07-31T08:34:09;0.15;;;0.10;;
29816;SDS011;16805;52.956;5.906;2023-07-31T08:36:35;0.08;;;0.08;;
29816;SDS011;16805;52.956;5.906;2023-07-31T08:39:00;0.82;;;0.15;;
29816;SDS011;16805;52.956;5.906;2023-07-31T08:41:27;0.10;;;0.10;;
29816;SDS011;16805;52.956;5.906;2023-07-31T08:43:52;0.10;;;0.10;;
29816;SDS011;16805;52.956;5.906;2023-07-31T08:46:20;1.30;;;0.10;;
29816;SDS011;16805;52.956;5.906;2023-07-31T08:48:47;0.10;;;0.10;;
29816;SDS011;16805;52.956;5.906;2023-07-31T08:51:16;0.45;;;0.20;;
29816;SDS011;16805;52.956;5.906;2023-07-31T08:53:42;1.40;;;0.10;;
29816;SDS011;16805;52.956;5.906;2023-07-31T08:56:08;0.13;;;0.13;;
29816;SDS011;16805;52.956;5.906;2023-07-31T08:58:36;1.02;;;0.10;;
29816;SDS011;16805;52.956;5.906;2023-07-31T09:01:03;0.10;;;0.10;;
29816;SDS011;16805;52.956;5.906;2023-07-31T09:03:31;0.45;;;0.10;;
29816;SDS011;16805;52.956;5.906;2023-07-31T09:05:59;0.00;;;0.00;;
29816;SDS011;16805;52.956;5.906;2023-07-31T09:08:25;1.55;;;0.20;;
29816;SDS011;16805;52.956;5.906;2023-07-31T09:10:55;0.22;;;0.10;;
29816;SDS011;16805;52.956;5.906;2023-07-31T09:13:31;0.10;;;0.10;;
29816;SDS011;16805;52.956;5.906;2023-07-31T09:15:57;0.10;;;0.10;;
29816;SDS011;16805;52.956;5.906;2023-07-31T09:18:24;0.30;;;0.03;;
29816;SDS011;16805;52.956;5.906;2023-07-31T09:21:05;0.10;;;0.10;;
29816;SDS011;16805;52.956;5.906;2023-07-31T09:23:41;0.10;;;0.10;;
29816;SDS011;16805;52.956;5.906;2023-07-31T09:26:28;0.17;;;0.10;;
29816;SDS011;16805;52.956;5.906;2023-07-31T09:28:54;0.10;;;0.10;;
29816;SDS011;16805;52.956;5.906;2023-07-31T09:31:33;0.15;;;0.10;;
29816;SDS011;16805;52.956;5.906;2023-07-31T09:34:06;0.10;;;0.10;;
29816;SDS011;16805;52.956;5.906;2023-07-31T09:36:32;0.40;;;0.20;;
29816;SDS011;16805;52.956;5.906;2023-07-31T09:41:36;0.25;;;0.20;;
29816;SDS011;16805;52.956;5.906;2023-07-31T09:44:07;0.32;;;0.10;;
29816;SDS011;16805;52.956;5.906;2023-07-31T09:46:34;1.10;;;0.10;;
29816;SDS011;16805;52.956;5.906;2023-07-31T09:51:35;0.95;;;0.20;;
29816;SDS011;16805;52.956;5.906;2023-07-31T09:54:04;0.20;;;0.10;;
29816;SDS011;16805;52.956;5.906;2023-07-31T09:56:44;1.42;;;0.20;;
29816;SDS011;16805;52.956;5.906;2023-07-31T09:59:18;0.57;;;0.10;;
29816;SDS011;16805;52.956;5.906;2023-07-31T10:01:45;0.13;;;0.10;;
29816;SDS011;16805;52.956;5.906;2023-07-31T10:04:12;0.50;;;0.13;;
29816;SDS011;16805;52.956;5.906;2023-07-31T10:06:39;0.17;;;0.17;;
29816;SDS011;16805;52.956;5.906;2023-07-31T10:09:08;0.30;;;0.22;;
29816;SDS011;16805;52.956;5.906;2023-07-31T10:11:43;0.20;;;0.13;;
29816;SDS011;16805;52.956;5.906;2023-07-31T10:14:18;0.20;;;0.20;;
29816;SDS011;16805;52.956;5.906;2023-07-31T10:16:45;1.17;;;0.32;;
29816;SDS011;16805;52.956;5.906;2023-07-31T10:19:12;0.13;;;0.13;;
29816;SDS011;16805;52.956;5.906;2023-07-31T10:21:38;0.10;;;0.10;;
29816;SDS011;16805;52.956;5.906;2023-07-31T10:24:06;0.73;;;0.20;;
29816;SDS011;16805;52.956;5.906;2023-07-31T10:26:33;1.75;;;0.30;;
29816;SDS011;16805;52.956;5.906;2023-07-31T10:29:03;2.05;;;0.30;;
29816;SDS011;16805;52.956;5.906;2023-07-31T10:31:30;0.75;;;0.35;;
29816;SDS011;16805;52.956;5.906;2023-07-31T10:33:57;2.15;;;0.60;;
29816;SDS011;16805;52.956;5.906;2023-07-31T10:36:28;0.10;;;0.10;;
29816;SDS011;16805;52.956;5.906;2023-07-31T10:38:55;0.10;;;0.10;;
29816;SDS011;16805;52.956;5.906;2023-07-31T10:41:28;0.10;;;0.10;;
29816;SDS011;16805;52.956;5.906;2023-07-31T10:43:57;0.17;;;0.15;;
29816;SDS011;16805;52.956;5.906;2023-07-31T10:46:24;0.65;;;0.10;;
29816;SDS011;16805;52.956;5.906;2023-07-31T10:48:57;0.10;;;0.10;;
29816;SDS011;16805;52.956;5.906;2023-07-31T10:51:24;2.72;;;0.20;;
29816;SDS011;16805;52.956;5.906;2023-07-31T10:54:12;0.20;;;0.10;;
29816;SDS011;16805;52.956;5.906;2023-07-31T10:56:46;0.10;;;0.10;;
29816;SDS011;16805;52.956;5.906;2023-07-31T11:04:27;0.10;;;0.10;;
29816;SDS011;16805;52.956;5.906;2023-07-31T11:06:57;0.32;;;0.20;;
29816;SDS011;16805;52.956;5.906;2023-07-31T11:09:25;0.45;;;0.28;;
29816;SDS011;16805;52.956;5.906;2023-07-31T11:11:54;0.82;;;0.25;;
29816;SDS011;16805;52.956;5.906;2023-07-31T11:14:21;0.82;;;0.25;;
29816;SDS011;16805;52.956;5.906;2023-07-31T11:16:49;0.32;;;0.28;;
29816;SDS011;16805;52.956;5.906;2023-07-31T11:19:21;1.48;;;0.40;;
29816;SDS011;16805;52.956;5.906;2023-07-31T11:21:48;0.50;;;0.50;;
29816;SDS011;16805;52.956;5.906;2023-07-31T11:24:14;1.48;;;0.50;;
29816;SDS011;16805;52.956;5.906;2023-07-31T11:26:47;1.80;;;0.40;;
29816;SDS011;16805;52.956;5.906;2023-07-31T11:29:17;0.60;;;0.40;;
29816;SDS011;16805;52.956;5.906;2023-07-31T11:31:44;0.50;;;0.50;;
29816;SDS011;16805;52.956;5.906;2023-07-31T11:34:10;1.02;;;0.60;;
29816;SDS011;16805;52.956;5.906;2023-07-31T11:36:35;1.55;;;0.63;;
29816;SDS011;16805;52.956;5.906;2023-07-31T11:39:09;0.90;;;0.55;;
29816;SDS011;16805;52.956;5.906;2023-07-31T11:41:35;1.92;;;0.60;;
29816;SDS011;16805;52.956;5.906;2023-07-31T11:44:01;0.63;;;0.52;;
29816;SDS011;16805;52.956;5.906;2023-07-31T11:46:28;2.55;;;0.65;;
29816;SDS011;16805;52.956;5.906;2023-07-31T11:48:59;1.67;;;0.70;;
29816;SDS011;16805;52.956;5.906;2023-07-31T11:51:25;3.08;;;0.73;;
29816;SDS011;16805;52.956;5.906;2023-07-31T11:53:53;2.47;;;0.55;;
29816;SDS011;16805;52.956;5.906;2023-07-31T11:56:22;1.15;;;0.60;;
29816;SDS011;16805;52.956;5.906;2023-07-31T11:58:51;1.35;;;1.13;;
29816;SDS011;16805;52.956;5.906;2023-07-31T12:01:24;4.93;;;1.08;;
29816;SDS011;16805;52.956;5.906;2023-07-31T12:03:52;4.47;;;0.77;;
29816;SDS011;16805;52.956;5.906;2023-07-31T12:06:19;1.05;;;0.60;;
29816;SDS011;16805;52.956;5.906;2023-07-31T12:08:47;0.40;;;0.40;;
29816;SDS011;16805;52.956;5.906;2023-07-31T12:11:14;1.73;;;0.95;;
29816;SDS011;16805;52.956;5.906;2023-07-31T12:13:40;1.35;;;0.43;;
29816;SDS011;16805;52.956;5.906;2023-07-31T12:16:05;0.70;;;0.47;;
29816;SDS011;16805;52.956;5.906;2023-07-31T12:18:35;1.90;;;0.70;;
29816;SDS011;16805;52.956;5.906;2023-07-31T12:21:03;1.30;;;0.80;;
29816;SDS011;16805;52.956;5.906;2023-07-31T12:23:31;1.80;;;1.10;;
29816;SDS011;16805;52.956;5.906;2023-07-31T12:28:46;3.40;;;1.08;;
29816;SDS011;16805;52.956;5.906;2023-07-31T12:31:17;5.93;;;1.40;;
29816;SDS011;16805;52.956;5.906;2023-07-31T12:33:46;4.95;;;0.93;;
29816;SDS011;16805;52.956;5.906;2023-07-31T12:36:13;3.97;;;1.15;;
29816;SDS011;16805;52.956;5.906;2023-07-31T12:38:42;3.22;;;1.08;;
29816;SDS011;16805;52.956;5.906;2023-07-31T12:41:08;3.78;;;1.08;;
29816;SDS011;16805;52.956;5.906;2023-07-31T12:43:37;5.10;;;1.10;;
29816;SDS011;16805;52.956;5.906;2023-07-31T12:46:04;3.65;;;1.40;;
29816;SDS011;16805;52.956;5.906;2023-07-31T12:48:31;2.83;;;1.38;;
29816;SDS011;16805;52.956;5.906;2023-07-31T12:50:56;3.05;;;1.02;;
29816;SDS011;16805;52.956;5.906;2023-07-31T12:53:22;5.25;;;0.85;;
29816;SDS011;16805;52.956;5.906;2023-07-31T12:55:48;1.90;;;0.90;;
29816;SDS011;16805;52.956;5.906;2023-07-31T12:58:14;3.08;;;0.90;;
29816;SDS011;16805;52.956;5.906;2023-07-31T13:00:39;1.90;;;0.90;;
29816;SDS011;16805;52.956;5.906;2023-07-31T13:03:05;2.15;;;0.85;;
29816;SDS011;16805;52.956;5.906;2023-07-31T13:05:31;5.97;;;1.15;;
29816;SDS011;16805;52.956;5.906;2023-07-31T13:07:56;2.83;;;1.20;;
29816;SDS011;16805;52.956;5.906;2023-07-31T13:10:23;3.78;;;1.25;;
29816;SDS011;16805;52.956;5.906;2023-07-31T13:12:49;0.95;;;0.77;;
29816;SDS011;16805;52.956;5.906;2023-07-31T13:15:15;3.35;;;1.02;;
29816;SDS011;16805;52.956;5.906;2023-07-31T13:17:40;4.95;;;1.00;;
29816;SDS011;16805;52.956;5.906;2023-07-31T13:20:06;3.40;;;0.85;;
29816;SDS011;16805;52.956;5.906;2023-07-31T13:22:33;3.45;;;1.23;;
29816;SDS011;16805;52.956;5.906;2023-07-31T13:24:58;11.25;;;1.08;;
29816;SDS011;16805;52.956;5.906;2023-07-31T13:27:24;3.95;;;1.23;;
29816;SDS011;16805;52.956;5.906;2023-07-31T13:29:52;5.45;;;1.13;;
29816;SDS011;16805;52.956;5.906;2023-07-31T13:32:19;5.25;;;1.23;;
29816;SDS011;16805;52.956;5.906;2023-07-31T13:34:46;4.95;;;1.30;;
29816;SDS011;16805;52.956;5.906;2023-07-31T13:37:12;4.05;;;1.27;;
29816;SDS011;16805;52.956;5.906;2023-07-31T13:39:38;2.65;;;1.08;;
29816;SDS011;16805;52.956;5.906;2023-07-31T13:42:04;3.67;;;1.38;;
29816;SDS011;16805;52.956;5.906;2023-07-31T13:44:34;3.78;;;1.13;;
29816;SDS011;16805;52.956;5.906;2023-07-31T13:47:00;4.68;;;1.30;;
29816;SDS011;16805;52.956;5.906;2023-07-31T13:49:26;8.27;;;1.70;;
29816;SDS011;16805;52.956;5.906;2023-07-31T13:51:52;12.15;;;1.67;;
29816;SDS011;16805;52.956;5.906;2023-07-31T13:54:18;5.18;;;1.23;;
29816;SDS011;16805;52.956;5.906;2023-07-31T13:56:44;5.93;;;1.67;;
29816;SDS011;16805;52.956;5.906;2023-07-31T14:04:20;3.90;;;1.60;;
29816;SDS011;16805;52.956;5.906;2023-07-31T14:06:46;6.40;;;1.35;;
29816;SDS011;16805;52.956;5.906;2023-07-31T14:09:13;3.22;;;2.00;;
29816;SDS011;16805;52.956;5.906;2023-07-31T14:11:39;2.13;;;1.20;;
29816;SDS011;16805;52.956;5.906;2023-07-31T14:14:05;6.28;;;1.30;;
29816;SDS011;16805;52.956;5.906;2023-07-31T14:16:30;4.45;;;1.35;;
29816;SDS011;16805;52.956;5.906;2023-07-31T14:18:56;6.40;;;1.48;;
29816;SDS011;16805;52.956;5.906;2023-07-31T14:21:24;2.92;;;1.35;;
29816;SDS011;16805;52.956;5.906;2023-07-31T14:23:50;4.65;;;1.40;;
29816;SDS011;16805;52.956;5.906;2023-07-31T14:26:16;3.30;;;1.40;;
29816;SDS011;16805;52.956;5.906;2023-07-31T14:28:42;3.58;;;1.30;;
29816;SDS011;16805;52.956;5.906;2023-07-31T14:31:07;8.02;;;1.60;;
29816;SDS011;16805;52.956;5.906;2023-07-31T14:33:33;3.28;;;1.30;;
29816;SDS011;16805;52.956;5.906;2023-07-31T14:35:59;3.65;;;1.20;;
29816;SDS011;16805;52.956;5.906;2023-07-31T14:38:26;4.28;;;1.20;;
29816;SDS011;16805;52.956;5.906;2023-07-31T14:40:51;3.70;;;1.20;;
29816;SDS011;16805;52.956;5.906;2023-07-31T14:43:17;4.18;;;1.40;;
29816;SDS011;16805;52.956;5.906;2023-07-31T14:45:43;3.85;;;1.40;;
29816;SDS011;16805;52.956;5.906;2023-07-31T14:48:08;3.72;;;1.10;;
29816;SDS011;16805;52.956;5.906;2023-07-31T14:50:34;2.15;;;0.90;;
29816;SDS011;16805;52.956;5.906;2023-07-31T14:53:00;2.60;;;0.95;;
29816;SDS011;16805;52.956;5.906;2023-07-31T14:55:26;5.30;;;1.10;;
29816;SDS011;16805;52.956;5.906;2023-07-31T14:57:51;2.92;;;1.02;;
29816;SDS011;16805;52.956;5.906;2023-07-31T15:00:17;7.65;;;1.20;;
29816;SDS011;16805;52.956;5.906;2023-07-31T15:02:43;2.95;;;1.08;;
29816;SDS011;16805;52.956;5.906;2023-07-31T15:05:09;5.38;;;1.20;;
29816;SDS011;16805;52.956;5.906;2023-07-31T15:07:34;4.18;;;0.95;;
29816;SDS011;16805;52.956;5.906;2023-07-31T15:10:01;3.70;;;0.98;;
29816;SDS011;16805;52.956;5.906;2023-07-31T15:12:27;3.50;;;1.20;;